createdAt,value
2023-01-08T00:00:59.476Z,0
2023-01-08T00:01:59.086Z,0
2023-01-08T00:03:00.240Z,0
2023-01-08T00:03:59.716Z,0
2023-01-08T00:04:59.281Z,0
2023-01-08T00:05:59.890Z,0
2023-01-08T00:06:59.286Z,0
2023-01-08T00:07:58.492Z,0
2023-01-08T00:08:58.961Z,0
2023-01-08T00:09:58.686Z,0
2023-01-08T00:10:58.922Z,0
2023-01-08T00:11:58.654Z,0
2023-01-08T00:12:59.151Z,0
2023-01-08T00:13:58.869Z,0
2023-01-08T00:14:58.880Z,0
2023-01-08T00:15:58.883Z,0
2023-01-08T00:16:59.285Z,0
2023-01-08T00:17:58.568Z,0
2023-01-08T00:18:59.077Z,0
2023-01-08T00:19:58.256Z,0
2023-01-08T00:20:58.767Z,0
2023-01-08T00:21:59.630Z,0
2023-01-08T00:22:58.735Z,0
2023-01-08T00:23:58.713Z,0
2023-01-08T00:24:58.964Z,0
2023-01-08T00:25:58.946Z,0
2023-01-08T00:26:58.962Z,0
2023-01-08T00:27:58.390Z,0
2023-01-08T00:28:58.438Z,0
2023-01-08T00:29:58.749Z,0
2023-01-08T00:30:59.418Z,0
2023-01-08T00:31:58.300Z,0
2023-01-08T00:32:58.586Z,0
2023-01-08T00:33:58.354Z,0
2023-01-08T00:34:58.803Z,0
2023-01-08T00:35:58.254Z,0
2023-01-08T00:36:58.499Z,0
2023-01-08T00:37:59.260Z,0
2023-01-08T00:38:57.959Z,0
2023-01-08T00:39:58.422Z,0
2023-01-08T00:40:58.709Z,0
2023-01-08T00:41:58.412Z,0
2023-01-08T00:42:58.421Z,0
2023-01-08T00:43:57.849Z,0
2023-01-08T00:44:58.635Z,0
2023-01-08T00:45:58.934Z,0
2023-01-08T00:46:58.573Z,0
2023-01-08T00:47:57.809Z,0
2023-01-08T00:48:58.049Z,0
2023-01-08T00:49:58.521Z,0
2023-01-08T00:50:57.747Z,0
2023-01-08T00:51:58.492Z,0
2023-01-08T00:52:58.534Z,0
2023-01-08T00:53:58.987Z,0
2023-01-08T00:54:58.244Z,0
2023-01-08T00:55:58.159Z,0
2023-01-08T00:56:58.404Z,0
2023-01-08T00:57:58.153Z,0
2023-01-08T00:58:57.868Z,0
2023-01-08T00:59:57.862Z,0
2023-01-08T01:00:58.346Z,0
2023-01-08T01:01:58.835Z,0
2023-01-08T01:02:58.051Z,0
2023-01-08T01:03:58.457Z,0
2023-01-08T01:04:58.023Z,0
2023-01-08T01:05:57.732Z,0
2023-01-08T01:06:57.981Z,0
2023-01-08T01:07:58.271Z,0
2023-01-08T01:08:57.991Z,0
2023-01-08T01:09:58.825Z,0
2023-01-08T01:10:57.472Z,0
2023-01-08T01:11:57.646Z,0
2023-01-08T01:12:57.390Z,0
2023-01-08T01:13:57.638Z,0
2023-01-08T01:14:57.591Z,0
2023-01-08T01:15:57.601Z,0
2023-01-08T01:16:58.428Z,0
2023-01-08T01:17:57.813Z,0
2023-01-08T01:18:57.320Z,0
2023-01-08T01:19:58.121Z,0
2023-01-08T01:20:57.803Z,0
2023-01-08T01:21:58.001Z,0
2023-01-08T01:22:57.755Z,0
2023-01-08T01:23:57.991Z,0
2023-01-08T01:24:57.440Z,0
2023-01-08T01:25:58.555Z,0
2023-01-08T01:26:57.404Z,0
2023-01-08T01:27:57.302Z,0
2023-01-08T01:28:57.905Z,0
2023-01-08T01:29:57.106Z,0
2023-01-08T01:30:58.022Z,0
2023-01-08T01:31:57.320Z,0
2023-01-08T01:32:57.837Z,0
2023-01-08T01:34:29.403Z,0
2023-01-08T01:34:57.533Z,0
2023-01-08T01:35:57.286Z,0
2023-01-08T01:36:57.499Z,0
2023-01-08T01:37:57.509Z,0
2023-01-08T01:38:57.942Z,0
2023-01-08T01:39:57.200Z,0
2023-01-08T01:40:57.709Z,0
2023-01-08T01:41:58.265Z,0
2023-01-08T01:42:56.915Z,0
2023-01-08T01:43:57.658Z,0
2023-01-08T01:44:57.383Z,0
2023-01-08T01:45:57.695Z,0
2023-01-08T01:46:56.805Z,0
2023-01-08T01:47:57.612Z,0
2023-01-08T01:48:57.547Z,0
2023-01-08T01:49:57.287Z,0
2023-01-08T01:50:57.011Z,0
2023-01-08T01:51:57.260Z,0
2023-01-08T01:52:57.476Z,0
2023-01-08T01:53:57.218Z,0
2023-01-08T01:54:57.455Z,0
2023-01-08T01:55:57.225Z,0
2023-01-08T01:56:57.538Z,0
2023-01-08T01:57:58.002Z,0
2023-01-08T01:58:56.896Z,0
2023-01-08T01:59:57.023Z,0
2023-01-08T02:00:57.337Z,0
2023-01-08T02:01:57.518Z,0
2023-01-08T02:02:56.596Z,0
2023-01-08T02:03:57.622Z,0
2023-01-08T02:04:57.318Z,0
2023-01-08T02:05:56.760Z,0
2023-01-08T02:06:56.993Z,0
2023-01-08T02:07:56.473Z,0
2023-01-08T02:08:56.222Z,0
2023-01-08T02:09:57.217Z,0
2023-01-08T02:10:56.699Z,0
2023-01-08T02:11:56.922Z,0
2023-01-08T02:12:56.928Z,0
2023-01-08T02:13:57.536Z,0
2023-01-08T02:14:56.367Z,0
2023-01-08T02:15:56.907Z,0
2023-01-08T02:16:57.190Z,0
2023-01-08T02:17:56.829Z,0
2023-01-08T02:18:57.061Z,0
2023-01-08T02:19:56.778Z,0
2023-01-08T02:20:56.535Z,0
2023-01-08T02:21:56.751Z,0
2023-01-08T02:22:56.755Z,0
2023-01-08T02:23:56.711Z,0
2023-01-08T02:24:56.965Z,0
2023-01-08T02:25:56.960Z,0
2023-01-08T02:26:56.424Z,0
2023-01-08T02:27:56.664Z,0
2023-01-08T02:28:56.670Z,0
2023-01-08T02:29:57.481Z,0
2023-01-08T02:30:56.890Z,0
2023-01-08T02:31:56.128Z,0
2023-01-08T02:32:56.060Z,0
2023-01-08T02:33:56.564Z,0
2023-01-08T02:34:56.017Z,0
2023-01-08T02:35:56.293Z,0
2023-01-08T02:36:56.499Z,0
2023-01-08T02:37:56.745Z,0
2023-01-08T02:38:56.472Z,0
2023-01-08T02:39:56.713Z,0
2023-01-08T02:40:56.436Z,0
2023-01-08T02:41:56.417Z,0
2023-01-08T02:42:56.707Z,0
2023-01-08T02:43:56.160Z,0
2023-01-08T02:44:56.128Z,0
2023-01-08T02:45:57.524Z,0
2023-01-08T02:46:56.078Z,0
2023-01-08T02:47:56.583Z,0
2023-01-08T02:48:56.063Z,0
2023-01-08T02:49:55.780Z,0
2023-01-08T02:50:56.529Z,0
2023-01-08T02:51:56.014Z,0
2023-01-08T02:52:56.529Z,0
2023-01-08T02:53:55.723Z,0
2023-01-08T02:54:55.953Z,0
2023-01-08T02:55:56.228Z,0
2023-01-08T02:56:56.199Z,0
2023-01-08T02:57:56.200Z,0
2023-01-08T02:58:56.162Z,0
2023-01-08T02:59:55.870Z,0
2023-01-08T03:00:55.862Z,0
2023-01-08T03:01:57.738Z,0
2023-01-08T03:02:57.354Z,0
2023-01-08T03:03:55.944Z,0
2023-01-08T03:04:55.872Z,0
2023-01-08T03:05:56.030Z,0
2023-01-08T03:06:56.282Z,0
2023-01-08T03:07:56.286Z,0
2023-01-08T03:08:55.992Z,0
2023-01-08T03:09:56.212Z,0
2023-01-08T03:10:56.234Z,0
2023-01-08T03:11:55.688Z,0
2023-01-08T03:12:56.158Z,0
2023-01-08T03:13:55.881Z,0
2023-01-08T03:14:56.234Z,0
2023-01-08T03:15:55.886Z,0
2023-01-08T03:16:56.540Z,0
2023-01-08T03:17:56.602Z,0
2023-01-08T03:18:55.808Z,0
2023-01-08T03:19:55.958Z,0
2023-01-08T03:20:56.033Z,0
2023-01-08T03:21:56.023Z,0
2023-01-08T03:22:56.010Z,0
2023-01-08T03:23:55.725Z,0
2023-01-08T03:24:55.719Z,0
2023-01-08T03:25:55.705Z,0
2023-01-08T03:26:55.671Z,0
2023-01-08T03:27:55.146Z,0
2023-01-08T03:28:55.706Z,0
2023-01-08T03:29:55.878Z,0
2023-01-08T03:30:56.029Z,0
2023-01-08T03:31:55.601Z,0
2023-01-08T03:32:55.069Z,0
2023-01-08T03:50:06.506Z,0
2023-01-08T03:51:05.171Z,0
2023-01-08T03:52:05.910Z,0
2023-01-08T03:53:07.932Z,0
2023-01-08T03:54:05.302Z,0
2023-01-08T03:55:05.528Z,0
2023-01-08T03:56:05.021Z,0
2023-01-08T03:57:05.521Z,0
2023-01-08T03:58:05.244Z,0
2023-01-08T03:59:05.251Z,0
2023-01-08T04:00:05.725Z,0
2023-01-08T04:01:05.453Z,0
2023-01-08T04:02:06.387Z,0
2023-01-08T04:03:08.099Z,0
2023-01-08T04:04:05.730Z,0
2023-01-08T04:05:05.347Z,0
2023-01-08T04:06:06.224Z,0
2023-01-08T04:07:05.070Z,0
2023-01-08T04:08:05.290Z,0
2023-01-08T04:09:05.045Z,0
2023-01-08T04:10:05.024Z,0
2023-01-08T04:11:05.530Z,0
2023-01-08T04:12:05.354Z,0
2023-01-08T04:13:05.233Z,0
2023-01-08T04:14:05.225Z,0
2023-01-08T04:15:05.463Z,0
2023-01-08T04:16:05.759Z,0
2023-01-08T04:17:05.430Z,0
2023-01-08T04:18:05.139Z,0
2023-01-08T04:19:05.126Z,0
2023-01-08T04:20:04.845Z,0
2023-01-08T04:21:05.064Z,0
2023-01-08T04:22:05.935Z,0
2023-01-08T04:23:05.320Z,0
2023-01-08T04:24:05.054Z,0
2023-01-08T04:25:04.762Z,0
2023-01-08T04:26:05.829Z,0
2023-01-08T04:27:05.552Z,0
2023-01-08T04:28:05.774Z,0
2023-01-08T04:29:05.530Z,0
2023-01-08T04:30:05.516Z,0
2023-01-08T04:31:06.105Z,0
2023-01-08T04:32:05.745Z,0
2023-01-08T04:33:05.495Z,0
2023-01-08T04:34:05.437Z,0
2023-01-08T04:35:05.942Z,0
2023-01-08T04:36:05.649Z,0
2023-01-08T04:37:05.378Z,0
2023-01-08T04:38:06.467Z,0
2023-01-08T04:39:05.575Z,0
2023-01-08T04:40:05.582Z,0
2023-01-08T04:41:05.602Z,0
2023-01-08T04:42:05.535Z,0
2023-01-08T04:43:05.791Z,0
2023-01-08T04:44:05.256Z,0
2023-01-08T04:45:05.258Z,0
2023-01-08T04:46:05.445Z,0
2023-01-08T04:47:05.459Z,0
2023-01-08T04:48:04.927Z,0
2023-01-08T04:49:05.429Z,0
2023-01-08T04:50:05.660Z,0
2023-01-08T04:51:05.136Z,0
2023-01-08T04:52:05.483Z,0
2023-01-08T04:53:05.361Z,0
2023-01-08T04:54:06.203Z,0
2023-01-08T04:55:05.557Z,0
2023-01-08T04:56:05.566Z,0
2023-01-08T04:57:05.033Z,0
2023-01-08T04:58:04.989Z,0
2023-01-08T04:59:05.240Z,0
2023-01-08T05:00:05.496Z,0
2023-01-08T05:01:04.953Z,0
2023-01-08T05:02:05.930Z,0
2023-01-08T05:03:05.808Z,0
2023-01-08T05:04:04.991Z,0
2023-01-08T05:05:05.437Z,0
2023-01-08T05:06:05.413Z,0
2023-01-08T05:07:04.665Z,0
2023-01-08T05:08:05.108Z,0
2023-01-08T05:09:04.835Z,0
2023-01-08T05:10:05.918Z,0
2023-01-08T05:11:05.053Z,0
2023-01-08T05:12:04.774Z,0
2023-01-08T05:13:05.011Z,0
2023-01-08T05:14:05.001Z,0
2023-01-08T05:15:04.968Z,0
2023-01-08T05:16:05.491Z,0
2023-01-08T05:17:04.987Z,0
2023-01-08T05:18:04.409Z,0
2023-01-08T05:19:04.919Z,0
2023-01-08T05:20:04.939Z,0
2023-01-08T05:21:04.686Z,0
2023-01-08T05:22:04.630Z,0
2023-01-08T05:23:04.330Z,0
2023-01-08T05:24:04.592Z,0
2023-01-08T05:25:04.518Z,0
2023-01-08T05:26:05.687Z,0
2023-01-08T05:27:04.271Z,0
2023-01-08T05:28:05.006Z,0
2023-01-08T05:29:05.024Z,0
2023-01-08T05:30:04.456Z,0
2023-01-08T05:31:05.251Z,0
2023-01-08T05:32:05.021Z,0
2023-01-08T05:33:04.448Z,0
2023-01-08T05:34:04.696Z,0
2023-01-08T05:35:04.700Z,0
2023-01-08T05:36:04.673Z,0
2023-01-08T05:37:04.912Z,0
2023-01-08T05:38:04.385Z,0
2023-01-08T05:39:04.615Z,0
2023-01-08T05:40:04.600Z,0
2023-01-08T05:41:04.349Z,0
2023-01-08T05:42:05.404Z,0
2023-01-08T05:43:04.273Z,0
2023-01-08T05:44:04.523Z,0
2023-01-08T05:45:04.232Z,0
2023-01-08T05:46:05.190Z,0
2023-01-08T05:47:04.744Z,0
2023-01-08T05:48:04.444Z,0
2023-01-08T05:49:04.183Z,0
2023-01-08T05:50:04.697Z,0
2023-01-08T05:51:04.431Z,0
2023-01-08T05:52:04.398Z,0
2023-01-08T05:53:04.374Z,0
2023-01-08T05:54:04.345Z,0
2023-01-08T05:55:04.078Z,0
2023-01-08T05:56:04.308Z,0
2023-01-08T05:57:04.301Z,0
2023-01-08T05:58:05.159Z,0
2023-01-08T05:59:03.749Z,0
2023-01-08T06:00:04.249Z,0
2023-01-08T06:01:04.235Z,0
2023-01-08T06:02:04.448Z,0
2023-01-08T06:03:03.992Z,0
2023-01-08T06:04:04.409Z,0
2023-01-08T06:05:04.157Z,0
2023-01-08T06:06:04.127Z,0
2023-01-08T06:07:03.872Z,0
2023-01-08T06:08:04.550Z,0
2023-01-08T06:09:04.090Z,0
2023-01-08T06:10:04.321Z,0
2023-01-08T06:11:04.075Z,0
2023-01-08T06:12:04.041Z,0
2023-01-08T06:13:04.021Z,0
2023-01-08T06:14:04.860Z,0
2023-01-08T06:15:04.017Z,0
2023-01-08T06:16:04.049Z,0
2023-01-08T06:17:03.974Z,0
2023-01-08T06:18:03.939Z,0
2023-01-08T06:19:04.190Z,0
2023-01-08T06:20:04.270Z,0
2023-01-08T06:21:04.149Z,0
2023-01-08T06:22:03.612Z,0
2023-01-08T06:23:04.174Z,0
2023-01-08T06:24:03.575Z,0
2023-01-08T06:25:04.070Z,0
2023-01-08T06:26:03.347Z,0
2023-01-08T06:27:03.770Z,0
2023-01-08T06:28:03.557Z,0
2023-01-08T06:29:03.750Z,0
2023-01-08T06:30:04.608Z,0
2023-01-08T06:31:04.246Z,0
2023-01-08T06:32:03.693Z,0
2023-01-08T06:33:03.423Z,0
2023-01-08T06:34:03.694Z,0
2023-01-08T06:35:03.675Z,0
2023-01-08T06:36:03.400Z,0
2023-01-08T06:37:03.621Z,0
2023-01-08T06:38:03.613Z,0
2023-01-08T06:39:03.622Z,0
2023-01-08T06:40:03.587Z,0
2023-01-08T06:41:03.869Z,0
2023-01-08T06:42:03.573Z,0
2023-01-08T06:43:03.609Z,0
2023-01-08T06:44:03.531Z,0
2023-01-08T06:45:03.744Z,0
2023-01-08T06:46:04.427Z,0
2023-01-08T06:47:03.345Z,0
2023-01-08T06:48:03.187Z,0
2023-01-08T06:49:03.441Z,0
2023-01-08T06:50:02.898Z,0
2023-01-08T06:51:03.656Z,0
2023-01-08T06:52:04.657Z,0
2023-01-08T06:53:04.400Z,0
2023-01-08T06:54:04.602Z,0
2023-01-08T06:55:04.332Z,0
2023-01-08T06:56:04.667Z,0
2023-01-08T06:57:04.331Z,0
2023-01-08T06:58:04.570Z,0
2023-01-08T06:59:04.036Z,0
2023-01-08T07:00:04.020Z,0
2023-01-08T07:01:04.526Z,0
2023-01-08T07:02:06.363Z,0
2023-01-08T07:03:05.308Z,0
2023-01-08T07:04:04.490Z,0
2023-01-08T07:05:04.229Z,0
2023-01-08T07:06:04.452Z,0
2023-01-08T07:07:04.230Z,0
2023-01-08T07:08:03.876Z,0
2023-01-08T07:09:03.855Z,0
2023-01-08T07:10:04.338Z,0
2023-01-08T07:11:04.119Z,0
2023-01-08T07:12:03.813Z,0
2023-01-08T07:13:04.317Z,0
2023-01-08T07:14:04.070Z,0
2023-01-08T07:15:04.010Z,5
2023-01-08T07:16:04.615Z,5
2023-01-08T07:17:04.269Z,5
2023-01-08T07:18:04.821Z,5
2023-01-08T07:19:03.951Z,5
2023-01-08T07:20:03.691Z,5
2023-01-08T07:21:03.686Z,5
2023-01-08T07:22:03.918Z,5
2023-01-08T07:23:03.903Z,5
2023-01-08T07:24:04.424Z,5
2023-01-08T07:25:03.591Z,5
2023-01-08T07:26:03.833Z,10
2023-01-08T07:27:03.583Z,10
2023-01-08T07:28:04.096Z,10
2023-01-08T07:29:03.535Z,10
2023-01-08T07:30:03.523Z,10
2023-01-08T07:31:04.136Z,15
2023-01-08T07:32:03.237Z,15
2023-01-08T07:33:03.916Z,15
2023-01-08T07:34:04.598Z,15
2023-01-08T07:35:03.752Z,15
2023-01-08T07:36:03.473Z,15
2023-01-08T07:37:03.154Z,15
2023-01-08T07:38:03.722Z,15
2023-01-08T07:39:03.625Z,15
2023-01-08T07:40:03.889Z,20
2023-01-08T07:41:03.703Z,20
2023-01-08T07:42:03.609Z,20
2023-01-08T07:43:03.333Z,20
2023-01-08T07:44:03.534Z,20
2023-01-08T07:45:03.293Z,20
2023-01-08T07:46:03.247Z,20
2023-01-08T07:47:03.511Z,20
2023-01-08T07:48:03.289Z,25
2023-01-08T07:49:03.707Z,25
2023-01-08T07:50:04.365Z,25
2023-01-08T07:51:03.189Z,25
2023-01-08T07:52:03.690Z,25
2023-01-08T07:53:03.438Z,25
2023-01-08T07:54:03.809Z,25
2023-01-08T07:55:03.643Z,25
2023-01-08T07:56:02.834Z,25
2023-01-08T07:57:03.589Z,25
2023-01-08T07:58:03.384Z,25
2023-01-08T07:59:02.820Z,25
2023-01-08T08:00:03.306Z,25
2023-01-08T08:01:05.984Z,25
2023-01-08T08:02:04.491Z,25
2023-01-08T08:03:03.909Z,25
2023-01-08T08:04:03.282Z,25
2023-01-08T08:05:02.692Z,25
2023-01-08T08:06:04.054Z,25
2023-01-08T08:07:03.185Z,25
2023-01-08T08:08:03.150Z,25
2023-01-08T08:09:02.878Z,25
2023-01-08T08:10:02.563Z,25
2023-01-08T08:11:03.148Z,30
2023-01-08T08:12:03.094Z,30
2023-01-08T08:13:03.067Z,30
2023-01-08T08:14:05.901Z,35
2023-01-08T08:15:02.619Z,35
2023-01-08T08:16:03.093Z,35
2023-01-08T08:17:02.253Z,35
2023-01-08T08:18:03.007Z,35
2023-01-08T08:19:02.715Z,35
2023-01-08T08:20:02.717Z,35
2023-01-08T08:21:02.970Z,35
2023-01-08T08:22:03.779Z,35
2023-01-08T08:23:03.174Z,35
2023-01-08T08:24:02.385Z,35
2023-01-08T08:25:02.917Z,40
2023-01-08T08:26:02.606Z,40
2023-01-08T08:27:03.124Z,45
2023-01-08T08:28:02.812Z,45
2023-01-08T08:29:03.065Z,45
2023-01-08T08:30:02.817Z,45
2023-01-08T08:31:02.998Z,40
2023-01-08T08:32:02.502Z,45
2023-01-08T08:33:03.034Z,45
2023-01-08T08:34:02.991Z,45
2023-01-08T08:35:02.501Z,45
2023-01-08T08:36:02.254Z,45
2023-01-08T08:37:02.675Z,45
2023-01-08T08:38:03.474Z,40
2023-01-08T08:39:03.795Z,40
2023-01-08T08:40:03.316Z,40
2023-01-08T08:41:04.071Z,45
2023-01-08T08:42:04.009Z,45
2023-01-08T08:43:04.043Z,50
2023-01-08T08:44:03.751Z,50
2023-01-08T08:45:03.753Z,50
2023-01-08T08:46:03.715Z,50
2023-01-08T08:47:04.221Z,50
2023-01-08T08:48:03.674Z,50
2023-01-08T08:49:03.428Z,50
2023-01-08T08:50:03.930Z,45
2023-01-08T08:51:03.369Z,45
2023-01-08T08:52:03.102Z,45
2023-01-08T08:53:03.338Z,40
2023-01-08T08:54:04.390Z,35
2023-01-08T08:55:03.327Z,40
2023-01-08T08:56:03.556Z,45
2023-01-08T08:57:03.814Z,50
2023-01-08T08:58:03.540Z,50
2023-01-08T08:59:03.757Z,50
2023-01-08T09:00:05.571Z,55
2023-01-08T09:01:03.227Z,60
2023-01-08T09:02:04.552Z,60
2023-01-08T09:03:04.335Z,60
2023-01-08T09:04:03.723Z,55
2023-01-08T09:05:03.678Z,55
2023-01-08T09:06:05.126Z,55
2023-01-08T09:07:03.414Z,55
2023-01-08T09:08:03.121Z,55
2023-01-08T09:09:03.349Z,55
2023-01-08T09:10:04.263Z,55
2023-01-08T09:11:03.296Z,55
2023-01-08T09:12:03.039Z,55
2023-01-08T09:13:03.343Z,55
2023-01-08T09:14:03.280Z,55
2023-01-08T09:15:02.975Z,55
2023-01-08T09:16:03.494Z,60
2023-01-08T09:17:02.964Z,60
2023-01-08T09:18:03.467Z,55
2023-01-08T09:19:03.200Z,55
2023-01-08T09:20:03.062Z,55
2023-01-08T09:21:03.422Z,55
2023-01-08T09:22:03.597Z,50
2023-01-08T09:23:02.664Z,55
2023-01-08T09:24:03.290Z,55
2023-01-08T09:25:03.027Z,60
2023-01-08T09:26:03.952Z,60
2023-01-08T09:27:02.856Z,65
2023-01-08T09:28:03.165Z,65
2023-01-08T09:29:03.183Z,70
2023-01-08T09:30:02.797Z,70
2023-01-08T09:31:03.298Z,70
2023-01-08T09:32:03.078Z,75
2023-01-08T09:33:06.886Z,70
2023-01-08T09:34:02.577Z,65
2023-01-08T09:35:03.177Z,70
2023-01-08T09:36:02.892Z,70
2023-01-08T09:37:02.905Z,60
2023-01-08T09:38:03.182Z,55
2023-01-08T09:39:03.132Z,55
2023-01-08T09:40:11.090Z,55
2023-01-08T09:41:02.853Z,60
2023-01-08T09:42:03.710Z,70
2023-01-08T09:43:03.060Z,75
2023-01-08T09:44:02.825Z,85
2023-01-08T09:45:02.824Z,90
2023-01-08T09:46:03.030Z,95
2023-01-08T09:47:03.564Z,90
2023-01-08T09:48:02.512Z,85
2023-01-08T09:49:02.703Z,80
2023-01-08T09:50:02.992Z,75
2023-01-08T09:51:02.737Z,80
2023-01-08T09:52:02.191Z,85
2023-01-08T09:53:02.643Z,95
2023-01-08T09:54:02.645Z,95
2023-01-08T09:55:02.442Z,95
2023-01-08T09:56:18.567Z,100
2023-01-08T09:57:02.355Z,100
2023-01-08T09:58:05.821Z,100
2023-01-08T09:59:02.589Z,105
2023-01-08T10:00:02.559Z,95
2023-01-08T10:01:02.852Z,95
2023-01-08T10:02:03.637Z,95
2023-01-08T10:03:03.069Z,95
2023-01-08T10:04:02.244Z,95
2023-01-08T10:05:03.944Z,95
2023-01-08T10:06:02.184Z,95
2023-01-08T10:07:01.925Z,95
2023-01-08T10:08:01.933Z,95
2023-01-08T10:09:03.129Z,95
2023-01-08T10:10:02.412Z,100
2023-01-08T10:11:01.856Z,100
2023-01-08T10:12:02.665Z,105
2023-01-08T10:13:02.084Z,105
2023-01-08T10:14:03.224Z,105
2023-01-08T10:15:03.840Z,110
2023-01-08T10:16:02.781Z,110
2023-01-08T10:17:02.052Z,110
2023-01-08T10:18:02.312Z,110
2023-01-08T10:19:02.343Z,110
2023-01-08T10:20:02.044Z,105
2023-01-08T10:21:03.815Z,105
2023-01-08T10:22:01.473Z,105
2023-01-08T10:23:02.193Z,100
2023-01-08T10:24:02.502Z,100
2023-01-08T10:25:02.376Z,100
2023-01-08T10:26:02.227Z,95
2023-01-08T10:27:03.583Z,95
2023-01-08T10:28:01.889Z,95
2023-01-08T10:29:02.107Z,90
2023-01-08T10:30:02.765Z,85
2023-01-08T10:31:02.062Z,80
2023-01-08T10:32:01.801Z,75
2023-01-08T10:33:03.491Z,65
2023-01-08T10:34:02.330Z,60
2023-01-08T10:35:01.526Z,65
2023-01-08T10:36:02.040Z,55
2023-01-08T10:37:01.758Z,55
2023-01-08T10:38:01.965Z,50
2023-01-08T10:39:01.720Z,55
2023-01-08T10:40:01.959Z,65
2023-01-08T10:41:01.445Z,75
2023-01-08T10:42:02.155Z,75
2023-01-08T10:43:01.882Z,80
2023-01-08T10:44:01.431Z,90
2023-01-08T10:45:01.907Z,100
2023-01-08T10:46:02.758Z,95
2023-01-08T10:47:01.352Z,100
2023-01-08T10:48:01.823Z,105
2023-01-08T10:49:02.085Z,100
2023-01-08T10:50:02.076Z,105
2023-01-08T10:51:01.797Z,105
2023-01-08T10:52:01.753Z,100
2023-01-08T10:53:01.534Z,95
2023-01-08T10:54:01.325Z,95
2023-01-08T10:55:02.011Z,100
2023-01-08T10:56:01.998Z,100
2023-01-08T10:57:04.754Z,120
2023-01-08T10:58:02.005Z,145
2023-01-08T10:59:01.737Z,165
2023-01-08T11:00:01.433Z,180
2023-01-08T11:01:02.211Z,190
2023-01-08T11:02:02.919Z,205
2023-01-08T11:03:01.952Z,215
2023-01-08T11:04:01.635Z,210
2023-01-08T11:05:01.587Z,200
2023-01-08T11:06:01.807Z,180
2023-01-08T11:07:01.816Z,150
2023-01-08T11:08:01.556Z,120
2023-01-08T11:09:01.292Z,110
2023-01-08T11:10:01.501Z,105
2023-01-08T11:11:01.272Z,105
2023-01-08T11:12:01.286Z,115
2023-01-08T11:13:01.244Z,130
2023-01-08T11:14:01.716Z,145
2023-01-08T11:15:01.426Z,135
2023-01-08T11:16:01.857Z,100
2023-01-08T11:17:01.436Z,80
2023-01-08T11:18:01.802Z,80
2023-01-08T11:19:01.100Z,85
2023-01-08T11:20:02.890Z,85
2023-01-08T11:21:01.623Z,80
2023-01-08T11:22:01.328Z,80
2023-01-08T11:23:01.294Z,70
2023-01-08T11:24:01.024Z,70
2023-01-08T11:25:01.538Z,60
2023-01-08T11:26:01.332Z,65
2023-01-08T11:27:01.517Z,70
2023-01-08T11:28:01.498Z,65
2023-01-08T11:29:01.624Z,70
2023-01-08T11:30:01.587Z,70
2023-01-08T11:31:03.433Z,65
2023-01-08T11:32:01.461Z,65
2023-01-08T11:33:01.563Z,75
2023-01-08T11:34:01.949Z,65
2023-01-08T11:35:01.560Z,55
2023-01-08T11:36:01.775Z,55
2023-01-08T11:37:01.756Z,65
2023-01-08T11:38:01.483Z,85
2023-01-08T11:39:01.190Z,90
2023-01-08T11:40:01.479Z,85
2023-01-08T11:41:01.245Z,80
2023-01-08T11:42:01.667Z,85
2023-01-08T11:43:01.439Z,85
2023-01-08T11:44:01.667Z,90
2023-01-08T11:45:01.427Z,90
2023-01-08T11:46:01.701Z,100
2023-01-08T11:47:01.134Z,115
2023-01-08T11:48:01.332Z,125
2023-01-08T11:49:01.339Z,130
2023-01-08T11:50:02.037Z,125
2023-01-08T11:51:01.899Z,120
2023-01-08T11:52:01.608Z,115
2023-01-08T11:53:01.592Z,125
2023-01-08T11:54:01.851Z,130
2023-01-08T11:55:01.042Z,125
2023-01-08T11:56:01.285Z,120
2023-01-08T11:57:01.780Z,125
2023-01-08T11:58:01.260Z,120
2023-01-08T11:59:01.755Z,115
2023-01-08T12:00:01.306Z,125
2023-01-08T12:01:01.230Z,130
2023-01-08T12:02:02.389Z,135
2023-01-08T12:03:01.753Z,130
2023-01-08T12:04:01.433Z,125
2023-01-08T12:05:01.468Z,125
2023-01-08T12:06:01.801Z,120
2023-01-08T12:07:01.653Z,110
2023-01-08T12:08:01.151Z,120
2023-01-08T12:09:01.368Z,140
2023-01-08T12:10:01.622Z,155
2023-01-08T12:11:01.368Z,155
2023-01-08T12:12:01.337Z,150
2023-01-08T12:13:01.298Z,145
2023-01-08T12:14:01.287Z,140
2023-01-08T12:15:01.034Z,135
2023-01-08T12:16:01.581Z,135
2023-01-08T12:17:00.987Z,135
2023-01-08T12:18:01.538Z,130
2023-01-08T12:19:01.212Z,125
2023-01-08T12:20:01.232Z,125
2023-01-08T12:21:01.191Z,120
2023-01-08T12:22:01.573Z,115
2023-01-08T12:23:01.465Z,115
2023-01-08T12:24:01.424Z,115
2023-01-08T12:25:01.194Z,115
2023-01-08T12:26:00.699Z,120
2023-01-08T12:27:01.406Z,120
2023-01-08T12:28:08.329Z,115
2023-01-08T12:29:01.109Z,110
2023-01-08T12:30:01.329Z,105
2023-01-08T12:31:00.290Z,100
2023-01-08T12:32:13.901Z,95
2023-01-08T12:33:00.281Z,95
2023-01-08T12:34:01.025Z,90
2023-01-08T12:35:00.741Z,85
2023-01-08T12:36:00.993Z,85
2023-01-08T12:37:01.233Z,85
2023-01-08T12:38:01.958Z,90
2023-01-08T12:39:00.685Z,90
2023-01-08T12:40:00.677Z,90
2023-01-08T12:41:00.941Z,90
2023-01-08T12:42:00.906Z,95
2023-01-08T12:43:12.326Z,95
2023-01-08T12:44:00.924Z,95
2023-01-08T12:45:00.886Z,100
2023-01-08T12:46:00.878Z,105
2023-01-08T12:47:00.847Z,100
2023-01-08T12:48:00.581Z,95
2023-01-08T12:49:01.657Z,95
2023-01-08T12:50:00.555Z,90
2023-01-08T12:51:00.821Z,80
2023-01-08T12:52:00.508Z,75
2023-01-08T12:53:00.774Z,65
2023-01-08T12:54:01.138Z,65
2023-01-08T12:55:01.112Z,60
2023-01-08T12:56:00.704Z,60
2023-01-08T12:57:00.702Z,70
2023-01-08T12:58:00.939Z,70
2023-01-08T12:59:00.673Z,75
2023-01-08T13:00:00.643Z,70
2023-01-08T13:01:01.225Z,65
2023-01-08T13:02:01.998Z,70
2023-01-08T13:03:01.207Z,70
2023-01-08T13:04:00.616Z,70
2023-01-08T13:05:00.583Z,70
2023-01-08T13:06:00.558Z,65
2023-01-08T13:07:00.812Z,65
2023-01-08T13:08:00.536Z,60
2023-01-08T13:09:03.363Z,55
2023-01-08T13:10:00.900Z,55
2023-01-08T13:11:00.263Z,60
2023-01-08T13:12:00.722Z,60
2023-01-08T13:13:00.704Z,60
2023-01-08T13:14:00.691Z,60
2023-01-08T13:15:00.689Z,60
2023-01-08T13:16:00.439Z,65
2023-01-08T13:17:00.553Z,65
2023-01-08T13:18:00.376Z,65
2023-01-08T13:19:00.641Z,60
2023-01-08T13:19:59.891Z,60
2023-01-08T13:21:00.637Z,60
2023-01-08T13:22:00.079Z,60
2023-01-08T13:23:00.331Z,60
2023-01-08T13:24:00.293Z,60
2023-01-08T13:25:02.195Z,60
2023-01-08T13:26:00.730Z,60
2023-01-08T13:27:00.538Z,60
2023-01-08T13:28:00.005Z,55
2023-01-08T13:29:00.271Z,60
2023-01-08T13:30:00.237Z,60
2023-01-08T13:31:00.479Z,60
2023-01-08T13:32:00.691Z,60
2023-01-08T13:33:00.434Z,55
2023-01-08T13:34:00.461Z,45
2023-01-08T13:35:00.152Z,45
2023-01-08T13:35:59.891Z,50
2023-01-08T13:37:00.095Z,55
2023-01-08T13:38:00.113Z,45
2023-01-08T13:39:00.310Z,45
2023-01-08T13:39:59.297Z,40
2023-01-08T13:41:02.646Z,40
2023-01-08T13:42:00.492Z,40
2023-01-08T13:43:00.006Z,40
2023-01-08T13:44:00.264Z,40
2023-01-08T13:45:00.232Z,40
2023-01-08T13:46:00.618Z,40
2023-01-08T13:46:59.454Z,45
2023-01-08T13:47:59.949Z,50
2023-01-08T13:48:59.935Z,50
2023-01-08T13:49:59.729Z,55
2023-01-08T13:50:59.903Z,55
2023-01-08T13:51:59.901Z,55
2023-01-08T13:53:00.140Z,55
2023-01-08T13:53:59.911Z,50
2023-01-08T13:54:59.898Z,45
2023-01-08T13:56:00.122Z,40
2023-01-08T13:57:01.888Z,45
2023-01-08T13:57:59.896Z,45
2023-01-08T13:58:59.515Z,45
2023-01-08T14:00:00.033Z,50
2023-01-08T14:01:00.354Z,50
2023-01-08T14:02:01.448Z,45
2023-01-08T14:03:00.487Z,50
2023-01-08T14:03:59.765Z,45
2023-01-08T14:04:59.762Z,45
2023-01-08T14:05:59.669Z,40
2023-01-08T14:06:59.950Z,35
2023-01-08T14:07:59.405Z,30
2023-01-08T14:08:59.963Z,30
2023-01-08T14:09:59.932Z,30
2023-01-08T14:10:59.861Z,30
2023-01-08T14:11:59.573Z,25
2023-01-08T14:12:59.916Z,35
2023-01-08T14:14:00.031Z,30
2023-01-08T14:15:01.467Z,35
2023-01-08T14:15:59.769Z,30
2023-01-08T14:17:00.125Z,25
2023-01-08T14:17:59.259Z,25
2023-01-08T14:18:59.232Z,25
2023-01-08T14:19:59.189Z,25
2023-01-08T14:20:59.702Z,25
2023-01-08T14:21:58.909Z,30
2023-01-08T14:22:59.421Z,25
2023-01-08T14:23:58.910Z,25
2023-01-08T14:24:59.300Z,20
2023-01-08T14:25:59.144Z,20
2023-01-08T14:26:59.395Z,15
2023-01-08T14:27:59.082Z,20
2023-01-08T14:28:59.383Z,20
2023-01-08T14:29:59.631Z,20
2023-01-08T14:30:59.397Z,20
2023-01-08T14:31:59.642Z,15
2023-01-08T14:32:59.013Z,20
2023-01-08T14:34:02.404Z,15
2023-01-08T14:34:58.988Z,15
2023-01-08T14:35:59.487Z,15
2023-01-08T14:36:58.954Z,10
2023-01-08T14:37:59.185Z,10
2023-01-08T14:38:59.258Z,10
2023-01-08T14:40:02.041Z,10
2023-01-08T14:40:58.877Z,10
2023-01-08T14:41:59.224Z,10
2023-01-08T14:42:59.375Z,10
2023-01-08T14:43:59.869Z,10